Time;durP1;ratioP1;P1;durP2;ratioP2;P2;SDS_P1;SDS_P2;PMS_P1;PMS_P2;Temp;Humidity;BMP_temperature;BMP_pressure;BME280_temperature;BME280_humidity;BME280_pressure;Samples;Min_cycle;Max_cycle;Signal;HPM_P1;HPM_P2
2022/07/30 00:00:51;;;;;;;3.58;3.28;;;22.50;65.50;;;;;;5064457;28;20024;-55
2022/07/30 00:03:16;;;;;;;4.40;3.92;;;22.50;65.50;;;;;;5057295;28;20025;-52
2022/07/30 00:05:42;;;;;;;5.00;3.97;;;22.50;65.50;;;;;;5043623;28;20398;-50
2022/07/30 00:08:07;;;;;;;3.83;3.17;;;22.50;65.40;;;;;;5069061;22;20052;-47
2022/07/30 00:10:33;;;;;;;3.88;3.58;;;22.50;65.50;;;;;;5062540;28;20028;-48
2022/07/30 00:12:58;;;;;;;4.28;3.88;;;22.50;66.00;;;;;;5046580;28;20037;-49
2022/07/30 00:15:24;;;;;;;4.00;3.50;;;22.50;66.10;;;;;;5045249;28;20502;-47
2022/07/30 00:17:49;;;;;;;6.57;3.78;;;22.50;65.70;;;;;;5043623;28;20104;-46
2022/07/30 00:20:15;;;;;;;3.95;3.65;;;22.50;65.80;;;;;;5044413;28;20124;-49
2022/07/30 00:22:41;;;;;;;3.72;3.30;;;22.50;65.80;;;;;;5044671;28;20075;-47
2022/07/30 00:25:07;;;;;;;4.63;3.80;;;22.50;65.80;;;;;;5044678;28;20032;-47
2022/07/30 00:27:34;;;;;;;5.63;3.92;;;22.50;66.10;;;;;;5044665;28;20551;-47
2022/07/30 00:30:00;;;;;;;4.10;3.70;;;22.50;65.80;;;;;;5044409;28;20025;-48
2022/07/30 00:32:25;;;;;;;3.90;3.45;;;22.50;65.70;;;;;;5043202;28;20032;-48
2022/07/30 00:34:51;;;;;;;5.50;3.22;;;22.50;65.70;;;;;;5044617;28;20032;-47
2022/07/30 00:37:16;;;;;;;4.05;3.65;;;22.50;65.70;;;;;;5045142;28;20033;-46
2022/07/30 00:39:42;;;;;;;5.82;4.07;;;22.50;65.80;;;;;;5043887;28;20028;-48
2022/07/30 00:42:07;;;;;;;5.68;3.65;;;22.50;65.80;;;;;;5044675;28;20650;-48
2022/07/30 00:44:33;;;;;;;4.57;3.55;;;22.50;65.80;;;;;;5044213;28;20025;-48
2022/07/30 00:46:58;;;;;;;4.25;3.70;;;22.50;65.80;;;;;;5044943;28;20035;-48
2022/07/30 00:49:24;;;;;;;5.47;3.65;;;22.50;65.80;;;;;;5044015;28;20481;-47
2022/07/30 00:51:50;;;;;;;4.45;3.42;;;22.50;65.90;;;;;;5045042;28;20477;-48
2022/07/30 00:54:15;;;;;;;6.32;3.50;;;22.50;65.90;;;;;;5044393;28;20033;-50
2022/07/30 00:56:41;;;;;;;3.75;3.35;;;22.50;65.90;;;;;;5044480;28;20512;-47
2022/07/30 00:59:07;;;;;;;3.60;3.20;;;22.50;65.90;;;;;;5044065;28;20095;-47
2022/07/30 01:01:32;;;;;;;3.13;2.83;;;22.50;65.90;;;;;;5044525;28;20604;-48
2022/07/30 01:03:58;;;;;;;5.03;3.53;;;22.50;65.80;;;;;;5044291;28;20167;-48
2022/07/30 01:06:24;;;;;;;4.32;3.40;;;22.50;65.80;;;;;;5044486;28;20029;-48
2022/07/30 01:08:49;;;;;;;3.95;3.40;;;22.50;65.90;;;;;;5043915;28;20286;-48
2022/07/30 01:11:15;;;;;;;3.30;2.97;;;22.50;65.90;;;;;;5044651;28;20040;-47
2022/07/30 01:13:40;;;;;;;3.47;3.17;;;22.50;65.90;;;;;;5044173;28;20497;-48
2022/07/30 01:16:07;;;;;;;3.83;3.22;;;22.50;65.90;;;;;;5043292;28;20546;-48
2022/07/30 01:21:19;;;;;;;4.00;3.30;;;22.50;65.90;;;;;;5043035;28;20057;-47
2022/07/30 01:23:45;;;;;;;4.25;3.45;;;22.50;65.90;;;;;;5042757;28;20041;-49
2022/07/30 01:26:12;;;;;;;3.95;2.80;;;22.40;65.90;;;;;;5043109;28;20116;-48
2022/07/30 01:28:42;;;;;;;3.67;3.08;;;22.50;65.90;;;;;;5042500;28;20026;-47
2022/07/30 01:31:07;;;;;;;3.70;2.95;;;22.50;66.00;;;;;;5043163;28;20489;-48
2022/07/30 01:33:35;;;;;;;4.63;3.10;;;22.50;65.90;;;;;;5042751;28;20041;-46
2022/07/30 01:36:00;;;;;;;3.83;3.20;;;22.50;66.00;;;;;;5042290;28;20112;-48
2022/07/30 01:38:26;;;;;;;4.68;2.83;;;22.50;66.00;;;;;;5042283;28;20464;-47
2022/07/30 01:40:52;;;;;;;4.22;3.28;;;22.40;66.00;;;;;;5042796;28;20490;-46
2022/07/30 01:43:18;;;;;;;3.30;2.92;;;22.50;66.20;;;;;;5042885;28;20029;-48
2022/07/30 01:45:44;;;;;;;3.95;3.15;;;22.40;66.00;;;;;;5042782;28;20402;-48
2022/07/30 01:48:10;;;;;;;4.88;3.72;;;22.40;66.10;;;;;;5042588;28;20029;-47
2022/07/30 01:50:36;;;;;;;4.65;3.25;;;22.40;66.00;;;;;;5041718;28;20029;-49
2022/07/30 01:53:01;;;;;;;4.03;3.25;;;22.40;66.10;;;;;;5043901;28;20029;-48
2022/07/30 01:55:35;;;;;;;4.45;3.53;;;22.40;66.00;;;;;;5042709;28;20490;-50
2022/07/30 01:58:02;;;;;;;3.83;3.40;;;22.40;66.00;;;;;;5042269;28;20048;-48
2022/07/30 02:00:29;;;;;;;3.15;2.88;;;22.40;66.10;;;;;;5042263;28;20029;-48
2022/07/30 02:02:55;;;;;;;4.00;3.20;;;22.40;66.10;;;;;;5042641;28;20029;-48
2022/07/30 02:05:21;;;;;;;4.60;3.72;;;22.40;66.10;;;;;;5042470;28;20067;-47
2022/07/30 02:08:00;;;;;;;3.47;3.13;;;22.40;65.90;;;;;;5043985;28;20123;-48
2022/07/30 02:10:40;;;;;;;3.42;3.03;;;22.40;66.00;;;;;;5060333;28;20039;-49
2022/07/30 02:13:06;;;;;;;3.08;2.78;;;22.40;66.00;;;;;;5048765;28;20112;-52
2022/07/30 02:15:50;;;;;;;4.70;3.47;;;22.40;66.00;;;;;;5053116;28;20132;-48
2022/07/30 02:18:35;;;;;;;4.47;3.42;;;22.40;66.10;;;;;;5067473;28;20056;-48
2022/07/30 02:21:06;;;;;;;3.33;3.03;;;22.50;66.00;;;;;;5063628;28;20037;-48
2022/07/30 02:23:37;;;;;;;3.72;3.38;;;22.40;66.00;;;;;;5065866;28;20635;-47
2022/07/30 02:26:02;;;;;;;4.43;3.28;;;22.40;66.00;;;;;;5067216;28;20043;-46
2022/07/30 02:28:28;;;;;;;3.13;2.72;;;22.40;66.10;;;;;;5065153;28;20029;-47
2022/07/30 02:30:56;;;;;;;3.33;3.03;;;22.40;66.00;;;;;;5065671;28;20032;-48
2022/07/30 02:33:23;;;;;;;3.40;3.10;;;22.40;66.10;;;;;;5065627;28;20090;-48
2022/07/30 02:35:50;;;;;;;3.35;3.05;;;22.40;66.10;;;;;;5066607;28;20029;-47
2022/07/30 02:38:16;;;;;;;4.43;3.83;;;22.40;66.10;;;;;;5045977;28;20429;-47
2022/07/30 02:40:42;;;;;;;2.90;2.70;;;22.40;66.10;;;;;;5040276;28;20026;-47
2022/07/30 02:43:07;;;;;;;4.00;3.42;;;22.40;66.10;;;;;;5009916;28;20615;-53
2022/07/30 02:45:33;;;;;;;3.22;2.92;;;22.40;66.10;;;;;;5027425;28;20041;-49
2022/07/30 02:48:08;;;;;;;4.20;3.22;;;22.40;66.10;;;;;;5009650;28;20033;-48
2022/07/30 02:50:34;;;;;;;3.55;3.25;;;22.40;66.70;;;;;;5009768;28;20037;-48
2022/07/30 02:52:59;;;;;;;3.90;3.25;;;22.40;66.20;;;;;;5027196;28;20056;-48
2022/07/30 02:55:26;;;;;;;3.20;2.90;;;22.40;66.10;;;;;;5026300;28;20053;-49
2022/07/30 02:57:52;;;;;;;3.50;3.20;;;22.40;66.10;;;;;;5009452;28;20124;-48
2022/07/30 03:00:17;;;;;;;3.40;3.10;;;22.40;66.10;;;;;;5027103;28;20390;-48
2022/07/30 03:02:43;;;;;;;4.18;3.55;;;22.40;66.10;;;;;;5024486;28;20095;-48
2022/07/30 03:05:08;;;;;;;5.35;3.35;;;22.40;66.10;;;;;;5007495;28;20025;-47
2022/07/30 03:07:34;;;;;;;4.70;3.55;;;22.40;66.10;;;;;;5044717;28;20045;-47
2022/07/30 03:10:00;;;;;;;3.45;3.03;;;22.40;66.30;;;;;;5046230;28;20029;-48
2022/07/30 03:12:27;;;;;;;4.40;2.95;;;22.40;66.20;;;;;;5044681;28;20116;-48
2022/07/30 03:14:53;;;;;;;4.68;3.33;;;22.40;66.20;;;;;;5045302;28;20028;-48
2022/07/30 03:17:18;;;;;;;4.65;3.38;;;22.30;66.20;;;;;;5046436;28;20029;-48
2022/07/30 03:19:44;;;;;;;3.63;3.05;;;22.40;66.20;;;;;;5043916;28;20055;-47
2022/07/30 03:22:09;;;;;;;4.30;3.20;;;22.40;66.30;;;;;;5028351;28;20029;-48
2022/07/30 03:24:36;;;;;;;3.47;2.80;;;22.40;66.20;;;;;;5044490;28;20053;-48
2022/07/30 03:27:02;;;;;;;4.60;3.15;;;22.40;66.20;;;;;;5044953;28;20119;-47
2022/07/30 03:29:27;;;;;;;3.13;2.80;;;22.40;66.30;;;;;;5044280;28;20025;-48
2022/07/30 03:31:53;;;;;;;4.40;3.60;;;22.40;66.30;;;;;;5042622;28;20415;-49
2022/07/30 03:34:19;;;;;;;4.43;3.15;;;22.30;66.30;;;;;;5044258;28;20037;-47
2022/07/30 03:36:44;;;;;;;3.40;3.10;;;22.40;66.40;;;;;;5044252;28;20481;-47
2022/07/30 03:39:10;;;;;;;4.78;3.60;;;22.30;66.30;;;;;;5043768;28;20068;-49
2022/07/30 03:41:35;;;;;;;5.10;3.25;;;22.30;66.90;;;;;;5044503;28;20055;-47
2022/07/30 03:44:01;;;;;;;4.88;3.58;;;22.30;66.20;;;;;;5044327;28;20029;-47
2022/07/30 03:46:26;;;;;;;3.75;3.40;;;22.30;66.30;;;;;;5044456;28;20028;-47
2022/07/30 03:48:52;;;;;;;3.65;3.25;;;22.30;66.20;;;;;;5043614;28;20482;-47
2022/07/30 03:51:17;;;;;;;3.80;3.50;;;22.30;66.20;;;;;;5028162;28;20498;-50
2022/07/30 03:53:43;;;;;;;3.80;3.40;;;22.30;66.20;;;;;;5043649;28;20116;-48
2022/07/30 03:56:08;;;;;;;4.38;3.55;;;22.30;66.30;;;;;;5044352;28;20109;-48
2022/07/30 03:58:34;;;;;;;3.90;3.55;;;22.30;66.30;;;;;;5043005;28;21002;-50
2022/07/30 04:00:59;;;;;;;3.88;3.53;;;22.40;66.30;;;;;;5043976;28;20029;-48
2022/07/30 04:03:29;;;;;;;4.68;3.15;;;22.30;66.90;;;;;;5044929;28;20033;-49
2022/07/30 04:05:55;;;;;;;4.30;3.90;;;22.30;66.30;;;;;;5045063;28;20121;-46
2022/07/30 04:08:20;;;;;;;4.10;3.70;;;22.30;66.40;;;;;;5045157;28;20762;-48
2022/07/30 04:10:47;;;;;;;4.30;3.90;;;22.30;66.30;;;;;;5041643;28;20030;-48
2022/07/30 04:13:13;;;;;;;4.10;3.20;;;22.30;66.40;;;;;;5044216;28;20107;-49
2022/07/30 04:16:06;;;;;;;4.05;3.53;;;22.30;66.30;;;;;;5045489;28;20116;-48
2022/07/30 04:18:36;;;;;;;4.05;3.67;;;22.30;66.30;;;;;;5004712;28;20525;-48
2022/07/30 04:21:03;;;;;;;3.72;3.42;;;22.30;66.40;;;;;;5020122;28;20484;-49
2022/07/30 04:23:28;;;;;;;4.30;3.90;;;22.30;66.50;;;;;;5023744;28;20045;-48
2022/07/30 04:25:54;;;;;;;4.10;3.70;;;22.30;66.50;;;;;;5025391;28;20111;-49
2022/07/30 04:28:20;;;;;;;4.70;4.30;;;22.30;66.50;;;;;;5023848;28;20067;-46
2022/07/30 04:30:46;;;;;;;5.10;4.63;;;22.30;66.50;;;;;;5022803;28;20045;-47
2022/07/30 04:33:11;;;;;;;5.40;4.65;;;22.30;66.40;;;;;;5023141;28;20896;-47
2022/07/30 04:35:37;;;;;;;4.72;4.32;;;22.30;66.40;;;;;;5023701;28;20038;-46
2022/07/30 04:38:03;;;;;;;4.45;4.05;;;22.30;66.30;;;;;;5024892;28;20674;-47
2022/07/30 04:40:30;;;;;;;4.75;4.22;;;22.30;66.40;;;;;;5023407;28;20033;-48
2022/07/30 04:42:55;;;;;;;4.55;4.15;;;22.30;66.40;;;;;;5024781;28;20025;-47
2022/07/30 04:45:21;;;;;;;4.63;4.22;;;22.30;66.40;;;;;;5025717;28;20029;-48
2022/07/30 04:47:46;;;;;;;4.43;4.03;;;22.30;66.40;;;;;;5025083;28;20032;-48
2022/07/30 04:50:13;;;;;;;4.88;4.35;;;22.30;66.50;;;;;;5024166;28;20033;-50
2022/07/30 04:52:39;;;;;;;4.75;4.40;;;22.30;66.50;;;;;;5035560;28;20065;-48
2022/07/30 04:55:05;;;;;;;4.78;4.38;;;22.30;66.30;;;;;;5023474;28;20184;-46
2022/07/30 04:57:30;;;;;;;4.82;4.40;;;22.30;66.50;;;;;;5024687;28;20029;-47
2022/07/30 04:59:59;;;;;;;5.22;4.78;;;22.30;66.50;;;;;;5022324;28;20028;-49
2022/07/30 05:02:25;;;;;;;5.20;4.45;;;22.30;66.50;;;;;;5024646;28;20033;-47
2022/07/30 05:04:51;;;;;;;5.78;5.18;;;22.30;66.50;;;;;;5023187;28;20044;-49
2022/07/30 05:07:16;;;;;;;5.53;5.00;;;22.30;66.60;;;;;;5022898;28;20029;-48
2022/07/30 05:09:42;;;;;;;4.70;4.30;;;22.30;66.50;;;;;;5022199;28;20120;-48
2022/07/30 05:12:08;;;;;;;5.22;4.72;;;22.30;66.60;;;;;;5023118;28;20405;-49
2022/07/30 05:14:33;;;;;;;4.97;4.47;;;22.30;66.60;;;;;;5022709;28;20049;-48
2022/07/30 05:16:59;;;;;;;5.30;4.75;;;22.30;66.50;;;;;;5024994;28;20026;-51
2022/07/30 05:19:24;;;;;;;5.35;4.85;;;22.30;66.50;;;;;;5023657;28;20171;-48
2022/07/30 05:21:50;;;;;;;6.80;6.15;;;22.30;66.40;;;;;;5024884;28;20042;-52
2022/07/30 05:24:15;;;;;;;6.60;6.00;;;22.30;66.50;;;;;;5024439;28;20103;-48
2022/07/30 05:26:41;;;;;;;5.78;5.35;;;22.30;66.50;;;;;;5024773;28;20029;-48
2022/07/30 05:29:06;;;;;;;6.97;6.30;;;22.30;66.60;;;;;;5023594;28;20049;-49
2022/07/30 05:31:32;;;;;;;6.40;5.88;;;22.30;66.50;;;;;;5024694;28;20108;-47
2022/07/30 05:33:57;;;;;;;6.32;5.82;;;22.20;66.60;;;;;;5023911;28;20487;-48
2022/07/30 05:36:23;;;;;;;6.75;6.10;;;22.20;66.50;;;;;;5024621;28;20036;-48
2022/07/30 05:38:48;;;;;;;7.57;6.85;;;22.20;66.60;;;;;;5023716;28;20104;-47
2022/07/30 05:41:14;;;;;;;7.25;6.65;;;22.20;66.60;;;;;;5024211;28;20498;-48
2022/07/30 05:43:40;;;;;;;7.22;6.63;;;22.30;66.60;;;;;;5027509;28;20033;-47
2022/07/30 05:46:05;;;;;;;6.53;5.90;;;22.20;66.60;;;;;;5028186;28;20029;-50
2022/07/30 05:48:34;;;;;;;6.25;5.75;;;22.20;66.70;;;;;;5026920;28;20037;-48
2022/07/30 05:51:02;;;;;;;7.57;6.80;;;22.20;66.70;;;;;;5027697;28;20032;-50
2022/07/30 05:53:28;;;;;;;7.65;6.93;;;22.20;66.70;;;;;;5026429;28;20033;-51
2022/07/30 05:55:53;;;;;;;7.25;6.70;;;22.20;66.70;;;;;;5027925;28;20030;-49
2022/07/30 05:58:19;;;;;;;6.85;6.25;;;22.30;66.70;;;;;;5026886;28;20033;-48
2022/07/30 06:00:44;;;;;;;7.53;6.78;;;22.20;66.70;;;;;;5026863;28;20516;-48
2022/07/30 06:03:10;;;;;;;7.43;6.72;;;22.20;66.70;;;;;;5027520;28;20453;-48
2022/07/30 06:05:35;;;;;;;7.57;6.88;;;22.20;66.70;;;;;;5027712;28;20034;-49
2022/07/30 06:08:01;;;;;;;8.10;7.40;;;22.20;66.70;;;;;;5048211;22;20517;-64
2022/07/30 06:10:26;;;;;;;8.02;7.32;;;22.20;66.70;;;;;;5006296;28;20056;-65
2022/07/30 06:12:52;;;;;;;8.13;7.47;;;22.20;66.80;;;;;;5024615;28;20038;-64
2022/07/30 06:15:17;;;;;;;8.15;7.35;;;22.20;66.80;;;;;;5029334;28;20028;-65
2022/07/30 06:17:44;;;;;;;8.55;7.82;;;22.20;66.80;;;;;;5029169;28;20029;-64
2022/07/30 06:20:10;;;;;;;7.95;7.05;;;22.20;66.80;;;;;;5040499;28;20033;-64
2022/07/30 06:22:36;;;;;;;7.88;7.18;;;22.20;66.80;;;;;;5049190;28;20465;-65
2022/07/30 06:25:01;;;;;;;8.77;7.90;;;22.20;66.90;;;;;;5039113;28;20029;-64
2022/07/30 06:27:27;;;;;;;7.82;7.15;;;22.20;66.90;;;;;;5029160;28;20029;-64
2022/07/30 06:29:53;;;;;;;8.02;7.22;;;22.20;66.90;;;;;;5036936;28;20574;-64
2022/07/30 06:32:18;;;;;;;8.05;7.35;;;22.20;66.90;;;;;;5048099;28;20055;-64
2022/07/30 06:34:44;;;;;;;8.48;7.68;;;22.20;66.90;;;;;;5042900;28;20025;-64
2022/07/30 06:37:10;;;;;;;9.23;7.80;;;22.20;66.90;;;;;;5029467;28;20100;-65
2022/07/30 06:39:35;;;;;;;7.38;6.78;;;22.20;66.90;;;;;;5031899;28;20279;-65
2022/07/30 06:42:00;;;;;;;8.07;7.20;;;22.20;66.90;;;;;;5049223;28;20886;-65
2022/07/30 06:44:26;;;;;;;7.90;7.20;;;22.20;67.00;;;;;;5046307;28;20025;-64
2022/07/30 06:46:51;;;;;;;8.88;8.00;;;22.20;66.90;;;;;;5029184;28;20026;-65
2022/07/30 06:49:17;;;;;;;8.70;7.90;;;22.20;67.00;;;;;;5027216;28;20035;-64
2022/07/30 06:51:44;;;;;;;9.32;8.32;;;22.10;66.90;;;;;;5048583;28;20716;-64
2022/07/30 06:54:10;;;;;;;8.85;8.05;;;22.10;66.90;;;;;;5047937;28;20072;-65
2022/07/30 06:56:36;;;;;;;8.77;7.97;;;22.20;66.90;;;;;;5029760;28;20069;-65
2022/07/30 06:59:01;;;;;;;9.88;8.65;;;22.20;66.90;;;;;;5028177;28;20025;-64
2022/07/30 07:01:27;;;;;;;8.73;7.82;;;22.20;66.90;;;;;;5044722;28;20029;-64
2022/07/30 07:03:52;;;;;;;9.60;8.60;;;22.10;66.90;;;;;;5048883;28;20025;-65
2022/07/30 07:06:18;;;;;;;8.75;7.95;;;22.20;66.90;;;;;;5033358;28;20032;-65
2022/07/30 07:08:43;;;;;;;9.45;8.55;;;22.20;66.90;;;;;;5028116;28;20523;-65
2022/07/30 07:11:09;;;;;;;10.48;9.57;;;22.20;66.90;;;;;;5041208;28;20048;-65
2022/07/30 07:13:34;;;;;;;9.68;8.82;;;22.20;66.90;;;;;;5048269;28;20541;-65
2022/07/30 07:16:00;;;;;;;9.93;8.90;;;22.20;67.00;;;;;;5037089;28;20026;-64
2022/07/30 07:18:26;;;;;;;9.45;8.55;;;22.20;67.00;;;;;;5026666;28;20037;-63
2022/07/30 07:20:51;;;;;;;9.35;8.52;;;22.20;67.10;;;;;;5037948;28;20033;-64
2022/07/30 07:23:17;;;;;;;10.55;9.23;;;22.20;67.00;;;;;;5049257;28;20029;-65
2022/07/30 07:25:42;;;;;;;10.00;8.98;;;22.10;67.60;;;;;;5041078;28;20037;-64
2022/07/30 07:28:08;;;;;;;10.35;9.32;;;22.10;67.20;;;;;;5028766;28;20037;-65
2022/07/30 07:30:33;;;;;;;9.20;8.38;;;22.10;67.10;;;;;;5032344;28;20166;-65
2022/07/30 07:32:58;;;;;;;9.75;8.75;;;22.10;67.10;;;;;;5054331;28;20074;-65
2022/07/30 07:35:24;;;;;;;10.35;9.30;;;22.10;67.10;;;;;;5044595;28;20664;-65
2022/07/30 07:37:49;;;;;;;10.70;9.60;;;22.10;67.10;;;;;;5026940;28;20030;-65
2022/07/30 07:40:15;;;;;;;10.30;9.30;;;22.20;67.10;;;;;;5028575;28;20101;-64
2022/07/30 07:42:40;;;;;;;10.10;9.15;;;22.10;67.10;;;;;;5046892;28;20098;-64
2022/07/30 07:45:06;;;;;;;10.05;8.95;;;22.20;67.20;;;;;;5047618;28;20021;-65
2022/07/30 07:47:42;;;;;;;9.90;8.98;;;22.10;67.20;;;;;;5026263;28;20025;-64
2022/07/30 07:50:08;;;;;;;9.25;8.38;;;22.10;67.20;;;;;;5027346;28;20048;-64
2022/07/30 07:52:33;;;;;;;9.77;8.73;;;22.10;67.30;;;;;;5045995;28;20492;-65
2022/07/30 07:54:58;;;;;;;9.32;8.52;;;22.10;67.30;;;;;;5047025;28;20025;-65
2022/07/30 07:57:24;;;;;;;9.85;8.85;;;22.10;67.30;;;;;;5028503;28;20028;-67
2022/07/30 07:59:53;;;;;;;10.55;9.55;;;22.10;67.30;;;;;;5026099;28;20075;-65
2022/07/30 08:02:18;;;;;;;11.60;9.75;;;22.10;67.30;;;;;;5042553;28;20108;-64
2022/07/30 08:04:45;;;;;;;9.70;8.80;;;22.10;67.30;;;;;;5046034;28;20104;-64
2022/07/30 08:07:10;;;;;;;10.43;9.27;;;22.10;67.40;;;;;;5031975;28;20041;-65
2022/07/30 08:09:36;;;;;;;9.23;8.43;;;22.10;67.10;;;;;;5026753;28;20038;-64
2022/07/30 08:12:01;;;;;;;8.85;7.88;;;22.10;67.30;;;;;;5039013;28;20017;-66
2022/07/30 08:14:27;;;;;;;8.80;7.93;;;22.20;67.20;;;;;;5047548;28;20037;-64
2022/07/30 08:16:52;;;;;;;9.02;8.13;;;22.10;67.30;;;;;;5036871;28;20041;-65
2022/07/30 08:19:18;;;;;;;10.30;9.23;;;22.10;67.30;;;;;;5026770;28;20022;-64
2022/07/30 08:21:43;;;;;;;10.65;9.30;;;22.10;67.30;;;;;;5035038;28;20037;-65
2022/07/30 08:24:09;;;;;;;9.70;8.80;;;22.10;67.30;;;;;;5046707;28;20086;-65
2022/07/30 08:26:34;;;;;;;10.43;9.32;;;22.10;67.30;;;;;;5040495;28;20107;-64
2022/07/30 08:29:00;;;;;;;10.02;9.02;;;22.10;67.30;;;;;;5026034;28;20026;-64
2022/07/30 08:31:25;;;;;;;9.95;8.95;;;22.10;67.20;;;;;;5030708;28;20087;-65
2022/07/30 08:33:52;;;;;;;9.85;8.95;;;22.10;67.20;;;;;;5047021;28;20048;-64
2022/07/30 08:36:17;;;;;;;10.45;9.18;;;22.10;67.20;;;;;;5044442;28;20032;-64
2022/07/30 08:38:43;;;;;;;9.77;8.93;;;22.10;67.10;;;;;;5026416;28;20061;-64
2022/07/30 08:41:08;;;;;;;10.15;9.15;;;22.10;67.10;;;;;;5027037;28;20021;-65
2022/07/30 08:43:34;;;;;;;9.35;8.55;;;22.10;67.30;;;;;;5044725;28;20126;-65
2022/07/30 08:46:01;;;;;;;10.68;9.52;;;22.10;67.20;;;;;;5045232;28;20033;-65
2022/07/30 08:48:26;;;;;;;10.15;8.98;;;22.10;67.30;;;;;;5009699;28;20087;-64
2022/07/30 08:50:52;;;;;;;9.43;8.48;;;22.10;67.40;;;;;;5025726;28;20029;-65
2022/07/30 08:53:17;;;;;;;9.68;8.75;;;22.10;67.30;;;;;;5041679;28;20086;-65
2022/07/30 08:55:43;;;;;;;10.30;9.20;;;22.10;67.30;;;;;;5044962;28;20041;-65
2022/07/30 08:58:24;;;;;;;9.07;8.18;;;22.10;66.70;;;;;;5029743;28;20091;-65
2022/07/30 09:00:49;;;;;;;8.95;7.90;;;21.90;66.90;;;;;;5024784;28;20116;-64
2022/07/30 09:03:15;;;;;;;8.52;7.72;;;22.00;67.10;;;;;;5041723;28;20560;-65
2022/07/30 09:05:40;;;;;;;8.07;7.28;;;21.90;66.60;;;;;;5046217;28;20033;-65
2022/07/30 09:08:06;;;;;;;9.43;7.93;;;22.00;66.60;;;;;;5031628;28;20026;-65
2022/07/30 09:10:31;;;;;;;8.32;7.53;;;22.00;67.20;;;;;;5025343;28;20585;-65
2022/07/30 09:12:57;;;;;;;9.32;7.57;;;22.00;66.50;;;;;;5037340;28;20491;-65
2022/07/30 09:15:24;;;;;;;8.73;6.82;;;22.00;66.70;;;;;;5046710;28;20025;-65
2022/07/30 09:17:51;;;;;;;7.43;6.55;;;22.00;66.20;;;;;;5039664;28;20026;-65
2022/07/30 09:20:17;;;;;;;8.63;7.57;;;22.00;66.40;;;;;;5030029;28;20446;-65
2022/07/30 09:22:47;;;;;;;7.35;6.53;;;22.00;67.00;;;;;;5038197;28;20029;-65
2022/07/30 09:25:13;;;;;;;6.65;5.97;;;22.00;66.30;;;;;;5050309;28;20275;-65
2022/07/30 09:27:46;;;;;;;6.85;6.07;;;21.90;66.00;;;;;;5043243;28;20040;-64
2022/07/30 09:30:12;;;;;;;6.50;5.68;;;21.90;65.90;;;;;;5029882;28;20049;-65
2022/07/30 09:32:53;;;;;;;6.28;5.70;;;21.90;66.00;;;;;;5035960;28;20064;-64
2022/07/30 09:35:19;;;;;;;8.25;6.05;;;21.90;66.00;;;;;;5049871;28;20060;-64
2022/07/30 09:37:45;;;;;;;7.28;5.95;;;22.00;66.80;;;;;;5044105;28;20489;-64
2022/07/30 09:40:17;;;;;;;6.75;6.05;;;22.00;66.70;;;;;;5029603;28;20029;-64
2022/07/30 09:42:43;;;;;;;7.57;5.88;;;22.00;66.70;;;;;;5035375;28;20068;-64
2022/07/30 09:45:10;;;;;;;6.50;5.90;;;22.00;66.90;;;;;;5050069;28;20056;-64
2022/07/30 09:47:37;;;;;;;5.80;5.22;;;22.00;66.90;;;;;;5045771;28;20041;-64
2022/07/30 09:50:03;;;;;;;6.18;4.68;;;22.00;66.80;;;;;;5041958;28;20036;-64
2022/07/30 09:52:28;;;;;;;5.68;5.18;;;22.00;66.80;;;;;;5050349;28;20037;-65
2022/07/30 09:54:54;;;;;;;5.78;5.18;;;22.00;66.90;;;;;;5057630;28;20029;-64
2022/07/30 09:57:19;;;;;;;7.68;5.00;;;22.00;66.70;;;;;;5049812;28;20651;-65
2022/07/30 09:59:45;;;;;;;5.47;4.50;;;22.00;66.70;;;;;;5029708;28;20566;-64
2022/07/30 10:02:10;;;;;;;6.75;4.80;;;22.00;66.70;;;;;;5029482;28;20024;-64
2022/07/30 10:04:36;;;;;;;4.82;4.30;;;22.00;66.70;;;;;;5047482;28;20025;-64
2022/07/30 10:07:01;;;;;;;6.50;4.97;;;22.00;66.50;;;;;;5048200;28;20400;-64
2022/07/30 10:09:29;;;;;;;5.57;4.63;;;22.00;66.40;;;;;;5031238;28;20036;-64
2022/07/30 10:12:04;;;;;;;5.40;4.45;;;22.00;66.70;;;;;;5029685;28;20022;-64
2022/07/30 10:14:33;;;;;;;;;;;22.00;66.60;;;;;;5045375;28;20045;-64
2022/07/30 10:16:59;;;;;;;5.85;4.70;;;22.00;66.60;;;;;;5049435;28;19909;-64
2022/07/30 10:19:25;;;;;;;4.80;4.18;;;22.00;66.40;;;;;;5034951;28;20513;-64
2022/07/30 10:21:52;;;;;;;5.22;4.30;;;21.90;66.60;;;;;;5027795;28;20035;-63
2022/07/30 10:24:17;;;;;;;8.20;4.53;;;21.90;66.30;;;;;;5041768;28;20029;-64
2022/07/30 10:26:44;;;;;;;5.00;4.50;;;22.00;66.20;;;;;;5049027;28;20037;-64
2022/07/30 10:29:10;;;;;;;5.55;4.03;;;22.00;66.00;;;;;;5035327;28;20534;-64
2022/07/30 10:31:35;;;;;;;5.25;4.70;;;21.90;65.90;;;;;;5027777;28;20037;-64
2022/07/30 10:34:01;;;;;;;4.30;3.90;;;21.90;65.90;;;;;;5037891;28;20032;-64
2022/07/30 10:36:26;;;;;;;4.30;3.80;;;21.90;66.30;;;;;;5048731;28;20495;-64
2022/07/30 10:38:52;;;;;;;4.28;3.88;;;21.90;66.30;;;;;;5041780;28;20072;-64
2022/07/30 10:41:43;;;;;;;5.85;4.88;;;22.00;66.50;;;;;;5027417;28;20531;-64
2022/07/30 10:44:12;;;;;;;4.43;4.03;;;21.90;66.30;;;;;;5034881;28;20521;-64
2022/07/30 10:46:48;;;;;;;4.25;3.95;;;21.90;66.40;;;;;;5047396;28;20170;-64
2022/07/30 10:49:15;;;;;;;5.18;4.40;;;21.90;66.40;;;;;;5037398;28;20120;-64
2022/07/30 10:51:48;;;;;;;4.80;4.40;;;21.90;66.40;;;;;;5028442;28;20030;-64
2022/07/30 10:54:37;;;;;;;5.93;4.65;;;21.90;66.40;;;;;;5036526;28;20056;-64
2022/07/30 10:57:10;;;;;;;4.65;4.25;;;21.90;66.50;;;;;;5044714;28;20032;-63
2022/07/30 10:59:54;;;;;;;4.63;4.25;;;21.90;66.40;;;;;;5037829;28;20680;-63
2022/07/30 11:02:21;;;;;;;5.55;4.40;;;22.00;66.50;;;;;;5028752;28;20053;-63
2022/07/30 11:04:46;;;;;;;4.90;3.95;;;21.90;66.70;;;;;;5039753;28;20526;-64
2022/07/30 11:07:28;;;;;;;7.00;4.43;;;21.90;66.50;;;;;;5040088;28;20029;-63
2022/07/30 11:09:59;;;;;;;5.05;4.40;;;21.90;66.50;;;;;;5045718;28;20128;-63
2022/07/30 11:12:44;;;;;;;5.07;4.50;;;21.90;66.50;;;;;;5046497;28;20029;-64
2022/07/30 11:15:11;;;;;;;4.40;4.00;;;21.90;66.40;;;;;;5046787;28;20033;-64
2022/07/30 11:18:08;;;;;;;4.47;4.07;;;21.90;66.60;;;;;;5045555;28;20032;-63
2022/07/30 11:20:34;;;;;;;4.53;3.90;;;21.90;66.30;;;;;;5045887;28;20029;-63
2022/07/30 11:23:10;;;;;;;5.50;3.90;;;21.90;66.60;;;;;;5047391;28;20095;-63
2022/07/30 11:25:35;;;;;;;4.45;4.05;;;21.90;66.60;;;;;;5047812;28;20619;-63
2022/07/30 11:28:00;;;;;;;3.92;3.60;;;21.90;66.70;;;;;;5047421;28;20033;-63
2022/07/30 11:30:30;;;;;;;5.80;4.22;;;21.90;66.70;;;;;;5047305;28;20025;-63
2022/07/30 11:33:16;;;;;;;5.90;4.28;;;21.90;66.60;;;;;;5047487;28;20037;-63
2022/07/30 11:35:42;;;;;;;4.30;3.90;;;21.90;66.50;;;;;;5039798;28;20499;-63
2022/07/30 11:38:10;;;;;;;6.30;4.22;;;21.90;66.70;;;;;;5047340;28;20029;-64
2022/07/30 11:40:45;;;;;;;4.47;4.07;;;21.90;66.80;;;;;;5046303;28;20029;-63
2022/07/30 11:43:18;;;;;;;4.30;3.90;;;21.90;66.90;;;;;;5031455;28;20017;-63
2022/07/30 11:45:51;;;;;;;4.72;4.32;;;21.90;66.70;;;;;;5049235;28;20064;-63
2022/07/30 11:48:18;;;;;;;4.63;4.22;;;21.90;66.90;;;;;;5049955;28;20052;-63
2022/07/30 11:50:44;;;;;;;4.47;4.07;;;21.90;66.70;;;;;;5054106;28;20139;-64
2022/07/30 11:53:14;;;;;;;7.38;4.82;;;21.90;66.70;;;;;;5047606;28;20043;-64
2022/07/30 11:55:42;;;;;;;4.45;3.85;;;21.90;66.70;;;;;;5040671;28;20449;-64
2022/07/30 11:58:27;;;;;;;4.50;4.10;;;21.90;66.60;;;;;;5067005;28;20039;-64
2022/07/30 12:00:54;;;;;;;5.20;4.13;;;21.90;66.70;;;;;;5054665;28;20043;-64
2022/07/30 12:03:21;;;;;;;4.63;3.78;;;21.90;66.70;;;;;;5047353;28;20056;-64
2022/07/30 12:05:46;;;;;;;4.93;3.80;;;21.90;66.70;;;;;;5057592;28;20035;-64
2022/07/30 12:10:53;;;;;;;4.82;4.32;;;21.90;66.80;;;;;;5036791;28;20041;-52
2022/07/30 12:13:19;;;;;;;4.80;4.30;;;21.90;66.70;;;;;;5024433;28;20097;-53
2022/07/30 12:15:45;;;;;;;4.88;4.47;;;21.90;66.80;;;;;;5025894;28;20021;-53
2022/07/30 12:18:12;;;;;;;5.03;4.53;;;21.90;66.70;;;;;;5058074;28;20053;-51
2022/07/30 12:20:40;;;;;;;4.90;4.40;;;21.90;66.70;;;;;;5056258;28;20025;-49
2022/07/30 12:23:12;;;;;;;5.55;4.25;;;21.90;66.70;;;;;;5056770;28;20030;-49
2022/07/30 12:25:39;;;;;;;4.95;4.55;;;21.90;66.70;;;;;;5025266;28;20029;-52
2022/07/30 12:28:05;;;;;;;4.57;4.18;;;21.90;66.60;;;;;;5056463;28;20222;-50
2022/07/30 12:30:30;;;;;;;3.97;3.67;;;21.90;66.80;;;;;;5056339;28;20541;-49
2022/07/30 12:32:56;;;;;;;5.05;4.65;;;21.90;66.80;;;;;;5025440;28;20034;-49
2022/07/30 12:35:22;;;;;;;4.68;4.28;;;21.90;66.80;;;;;;5056816;28;20038;-47
2022/07/30 12:38:03;;;;;;;4.75;4.13;;;21.90;66.70;;;;;;5025410;28;20112;-48
2022/07/30 12:40:29;;;;;;;4.07;3.78;;;21.90;66.60;;;;;;5024333;28;20029;-50
2022/07/30 12:42:54;;;;;;;4.72;4.32;;;21.90;66.70;;;;;;5056796;28;20100;-48
2022/07/30 12:45:30;;;;;;;4.35;3.63;;;21.90;66.70;;;;;;5024813;28;20036;-48
2022/07/30 12:47:59;;;;;;;4.30;3.90;;;21.90;66.70;;;;;;5056566;28;20084;-52
2022/07/30 12:50:25;;;;;;;4.88;4.30;;;21.90;66.80;;;;;;5054897;28;20029;-48